Cleveland, Arkansas
Current Conditions -  °F | °C
As of 1:35 AM on Saturday 29 Nov 2014 (Local Time) from KCCA Reporting Station
Clear Clear  
Wind Chill: 34°   Ceiling: Unl
Heat Index: 34°   Visibility: 9mi
Dew Point: 32°   Wind: 0mph
Humidity: 93%   Direction: NA
Pressure: 29.99"   Gusts: NA
Location:  35.42°N, 92.71°W
Report Text: KCCA 290735Z AUTO 00000KT 9SM CLR 01/00 A2999 RMK AO2
Loading
Personal Weather Stations






























Interactive Weather Map New forecast layout! Learn more

10-Day Weather Forecast

Advertisements
Track Severe Weather on mobile